Alpine, Pennsylvania
Current Conditions -  °F | °C
As of 6:56 AM on Monday 20 Oct 2014 (Local Time) from KCXY Reporting Station
Clear Clear  
Wind Chill:   Ceiling: Unl
Heat Index:   Visibility: 10mi
Dew Point:   Wind: 3mph
Humidity: 89%   Direction: 220°SW
Pressure: 30.09"   Gusts: NA
Location:  40.1328°N, 76.8833°W
Report Text: KCXY 201056Z 22003KT 10SM CLR 03/01 A3009 RMK AO2 SLP194 T00280011
Loading
Personal Weather Stations






























Interactive Weather Map
Tropical Storm Tracking
New forecast layout! Learn more

10-Day Weather Forecast

Advertisements
Track Severe Weather on mobile